sensor_id;sensor_type;location;lat;lon;timestamp;P1;durP1;ratioP1;P2;durP2;ratioP2
22234;SDS011;11286;45.596;5.284;2022-08-19T00:02:03;5.93;;;5.47;;
22234;SDS011;11286;45.596;5.284;2022-08-19T00:04:33;6.55;;;5.95;;
22234;SDS011;11286;45.596;5.284;2022-08-19T00:07:01;6.00;;;5.50;;
22234;SDS011;11286;45.596;5.284;2022-08-19T00:09:28;6.85;;;6.28;;
22234;SDS011;11286;45.596;5.284;2022-08-19T00:11:55;6.88;;;6.28;;
22234;SDS011;11286;45.596;5.284;2022-08-19T00:14:21;7.15;;;6.53;;
22234;SDS011;11286;45.596;5.284;2022-08-19T00:16:49;6.60;;;6.00;;
22234;SDS011;11286;45.596;5.284;2022-08-19T00:19:16;7.22;;;6.53;;
22234;SDS011;11286;45.596;5.284;2022-08-19T00:21:42;7.03;;;6.43;;
22234;SDS011;11286;45.596;5.284;2022-08-19T00:24:08;7.30;;;6.65;;
22234;SDS011;11286;45.596;5.284;2022-08-19T00:26:35;7.88;;;7.18;;
22234;SDS011;11286;45.596;5.284;2022-08-19T00:29:03;7.40;;;6.80;;
22234;SDS011;11286;45.596;5.284;2022-08-19T00:31:29;7.57;;;6.93;;
22234;SDS011;11286;45.596;5.284;2022-08-19T00:33:56;9.57;;;7.28;;
22234;SDS011;11286;45.596;5.284;2022-08-19T00:36:22;7.90;;;7.10;;
22234;SDS011;11286;45.596;5.284;2022-08-19T00:38:47;8.25;;;7.47;;
22234;SDS011;11286;45.596;5.284;2022-08-19T00:41:15;7.63;;;7.03;;
22234;SDS011;11286;45.596;5.284;2022-08-19T00:43:55;7.55;;;6.95;;
22234;SDS011;11286;45.596;5.284;2022-08-19T00:46:27;7.70;;;7.10;;
22234;SDS011;11286;45.596;5.284;2022-08-19T00:48:53;7.53;;;6.93;;
22234;SDS011;11286;45.596;5.284;2022-08-19T00:51:21;8.60;;;7.70;;
22234;SDS011;11286;45.596;5.284;2022-08-19T00:53:50;8.85;;;8.05;;
22234;SDS011;11286;45.596;5.284;2022-08-19T00:56:16;8.80;;;8.10;;
22234;SDS011;11286;45.596;5.284;2022-08-19T00:58:43;8.25;;;7.55;;
22234;SDS011;11286;45.596;5.284;2022-08-19T01:01:09;8.25;;;7.35;;
22234;SDS011;11286;45.596;5.284;2022-08-19T01:03:34;9.55;;;8.07;;
22234;SDS011;11286;45.596;5.284;2022-08-19T01:06:00;9.15;;;8.32;;
22234;SDS011;11286;45.596;5.284;2022-08-19T01:08:26;9.43;;;8.52;;
22234;SDS011;11286;45.596;5.284;2022-08-19T01:10:53;9.55;;;8.57;;
22234;SDS011;11286;45.596;5.284;2022-08-19T01:13:22;9.88;;;8.98;;
22234;SDS011;11286;45.596;5.284;2022-08-19T01:16:11;9.77;;;8.82;;
22234;SDS011;11286;45.596;5.284;2022-08-19T01:18:38;9.38;;;8.48;;
22234;SDS011;11286;45.596;5.284;2022-08-19T01:21:08;9.43;;;8.63;;
22234;SDS011;11286;45.596;5.284;2022-08-19T01:23:40;10.40;;;9.40;;
22234;SDS011;11286;45.596;5.284;2022-08-19T01:26:09;10.10;;;9.18;;
22234;SDS011;11286;45.596;5.284;2022-08-19T01:28:37;10.52;;;9.52;;
22234;SDS011;11286;45.596;5.284;2022-08-19T01:31:03;10.93;;;9.93;;
22234;SDS011;11286;45.596;5.284;2022-08-19T01:33:29;10.65;;;9.75;;
22234;SDS011;11286;45.596;5.284;2022-08-19T01:36:21;10.50;;;9.50;;
22234;SDS011;11286;45.596;5.284;2022-08-19T01:39:05;11.38;;;10.38;;
22234;SDS011;11286;45.596;5.284;2022-08-19T01:41:34;11.27;;;10.00;;
22234;SDS011;11286;45.596;5.284;2022-08-19T01:44:00;10.82;;;9.82;;
22234;SDS011;11286;45.596;5.284;2022-08-19T01:46:28;10.80;;;9.77;;
22234;SDS011;11286;45.596;5.284;2022-08-19T01:48:54;10.65;;;9.68;;
22234;SDS011;11286;45.596;5.284;2022-08-19T01:51:21;10.20;;;9.38;;
22234;SDS011;11286;45.596;5.284;2022-08-19T01:53:47;11.35;;;10.13;;
22234;SDS011;11286;45.596;5.284;2022-08-19T01:56:14;10.85;;;9.82;;
22234;SDS011;11286;45.596;5.284;2022-08-19T01:58:41;10.38;;;9.50;;
22234;SDS011;11286;45.596;5.284;2022-08-19T02:01:14;10.27;;;9.27;;
22234;SDS011;11286;45.596;5.284;2022-08-19T02:03:40;10.20;;;9.30;;
22234;SDS011;11286;45.596;5.284;2022-08-19T02:06:05;9.85;;;9.00;;
22234;SDS011;11286;45.596;5.284;2022-08-19T02:08:32;12.43;;;9.65;;
22234;SDS011;11286;45.596;5.284;2022-08-19T02:11:00;11.02;;;10.02;;
22234;SDS011;11286;45.596;5.284;2022-08-19T02:13:26;10.73;;;9.82;;
22234;SDS011;11286;45.596;5.284;2022-08-19T02:15:52;10.20;;;9.30;;
22234;SDS011;11286;45.596;5.284;2022-08-19T02:18:17;9.77;;;8.88;;
22234;SDS011;11286;45.596;5.284;2022-08-19T02:20:43;9.00;;;8.20;;
22234;SDS011;11286;45.596;5.284;2022-08-19T02:23:11;12.43;;;9.15;;
22234;SDS011;11286;45.596;5.284;2022-08-19T02:25:38;10.05;;;9.15;;
22234;SDS011;11286;45.596;5.284;2022-08-19T02:28:04;10.32;;;9.32;;
22234;SDS011;11286;45.596;5.284;2022-08-19T02:30:30;9.15;;;8.25;;
22234;SDS011;11286;45.596;5.284;2022-08-19T02:32:56;9.20;;;8.40;;
22234;SDS011;11286;45.596;5.284;2022-08-19T02:35:22;9.30;;;8.40;;
22234;SDS011;11286;45.596;5.284;2022-08-19T02:37:48;8.20;;;7.40;;
22234;SDS011;11286;45.596;5.284;2022-08-19T02:40:33;7.97;;;7.28;;
22234;SDS011;11286;45.596;5.284;2022-08-19T02:43:06;8.20;;;7.38;;
22234;SDS011;11286;45.596;5.284;2022-08-19T02:45:34;8.25;;;7.55;;
22234;SDS011;11286;45.596;5.284;2022-08-19T02:48:00;8.50;;;7.70;;
22234;SDS011;11286;45.596;5.284;2022-08-19T02:50:27;8.75;;;7.72;;
22234;SDS011;11286;45.596;5.284;2022-08-19T02:52:53;8.45;;;7.65;;
22234;SDS011;11286;45.596;5.284;2022-08-19T02:55:19;8.13;;;7.32;;
22234;SDS011;11286;45.596;5.284;2022-08-19T02:57:45;8.10;;;7.35;;
22234;SDS011;11286;45.596;5.284;2022-08-19T03:00:12;9.07;;;7.80;;
22234;SDS011;11286;45.596;5.284;2022-08-19T03:02:38;9.88;;;7.63;;
22234;SDS011;11286;45.596;5.284;2022-08-19T03:05:05;8.00;;;7.20;;
22234;SDS011;11286;45.596;5.284;2022-08-19T03:07:32;8.30;;;7.60;;
22234;SDS011;11286;45.596;5.284;2022-08-19T03:09:57;8.32;;;7.40;;
22234;SDS011;11286;45.596;5.284;2022-08-19T03:12:23;8.93;;;6.88;;
22234;SDS011;11286;45.596;5.284;2022-08-19T03:14:49;8.20;;;7.35;;
22234;SDS011;11286;45.596;5.284;2022-08-19T03:17:15;7.90;;;7.30;;
22234;SDS011;11286;45.596;5.284;2022-08-19T03:19:41;8.48;;;7.55;;
22234;SDS011;11286;45.596;5.284;2022-08-19T03:22:08;7.70;;;7.10;;
22234;SDS011;11286;45.596;5.284;2022-08-19T03:24:33;8.27;;;7.47;;
22234;SDS011;11286;45.596;5.284;2022-08-19T03:26:59;8.35;;;7.65;;
22234;SDS011;11286;45.596;5.284;2022-08-19T03:29:28;8.88;;;8.00;;
22234;SDS011;11286;45.596;5.284;2022-08-19T03:31:59;9.40;;;8.20;;
22234;SDS011;11286;45.596;5.284;2022-08-19T03:34:28;8.52;;;7.72;;
22234;SDS011;11286;45.596;5.284;2022-08-19T03:36:56;9.85;;;8.95;;
22234;SDS011;11286;45.596;5.284;2022-08-19T03:39:24;9.35;;;8.55;;
22234;SDS011;11286;45.596;5.284;2022-08-19T03:41:51;9.55;;;8.65;;
22234;SDS011;11286;45.596;5.284;2022-08-19T03:44:19;9.93;;;8.93;;
22234;SDS011;11286;45.596;5.284;2022-08-19T03:46:48;12.88;;;9.45;;
22234;SDS011;11286;45.596;5.284;2022-08-19T03:49:16;10.15;;;9.20;;
22234;SDS011;11286;45.596;5.284;2022-08-19T03:51:42;9.98;;;8.98;;
22234;SDS011;11286;45.596;5.284;2022-08-19T03:54:10;9.82;;;9.02;;
22234;SDS011;11286;45.596;5.284;2022-08-19T03:56:39;11.68;;;9.48;;
22234;SDS011;11286;45.596;5.284;2022-08-19T03:59:07;10.35;;;9.40;;
22234;SDS011;11286;45.596;5.284;2022-08-19T04:01:40;9.23;;;8.32;;
22234;SDS011;11286;45.596;5.284;2022-08-19T04:04:06;9.70;;;8.80;;
22234;SDS011;11286;45.596;5.284;2022-08-19T04:06:33;8.68;;;7.90;;
22234;SDS011;11286;45.596;5.284;2022-08-19T04:09:01;9.52;;;8.63;;
22234;SDS011;11286;45.596;5.284;2022-08-19T04:11:31;9.23;;;8.48;;
22234;SDS011;11286;45.596;5.284;2022-08-19T04:14:00;9.27;;;8.48;;
22234;SDS011;11286;45.596;5.284;2022-08-19T04:16:26;10.23;;;9.32;;
22234;SDS011;11286;45.596;5.284;2022-08-19T04:18:56;10.02;;;9.13;;
22234;SDS011;11286;45.596;5.284;2022-08-19T04:21:25;10.00;;;8.98;;
22234;SDS011;11286;45.596;5.284;2022-08-19T04:23:52;9.32;;;8.45;;
22234;SDS011;11286;45.596;5.284;2022-08-19T04:26:19;10.35;;;9.38;;
22234;SDS011;11286;45.596;5.284;2022-08-19T04:28:50;10.27;;;9.30;;
22234;SDS011;11286;45.596;5.284;2022-08-19T04:31:18;9.95;;;9.05;;
22234;SDS011;11286;45.596;5.284;2022-08-19T04:33:45;10.35;;;9.35;;
22234;SDS011;11286;45.596;5.284;2022-08-19T04:36:18;10.15;;;9.25;;
22234;SDS011;11286;45.596;5.284;2022-08-19T04:38:47;11.45;;;9.63;;
22234;SDS011;11286;45.596;5.284;2022-08-19T04:41:13;11.25;;;10.13;;
22234;SDS011;11286;45.596;5.284;2022-08-19T04:43:57;10.95;;;9.85;;
22234;SDS011;11286;45.596;5.284;2022-08-19T04:46:23;10.85;;;9.82;;
22234;SDS011;11286;45.596;5.284;2022-08-19T04:48:49;11.25;;;10.27;;
22234;SDS011;11286;45.596;5.284;2022-08-19T04:51:14;11.43;;;10.32;;
22234;SDS011;11286;45.596;5.284;2022-08-19T04:53:41;11.18;;;10.15;;
22234;SDS011;11286;45.596;5.284;2022-08-19T04:56:08;11.25;;;9.93;;
22234;SDS011;11286;45.596;5.284;2022-08-19T04:58:37;12.73;;;10.90;;
22234;SDS011;11286;45.596;5.284;2022-08-19T05:01:06;11.30;;;10.10;;
22234;SDS011;11286;45.596;5.284;2022-08-19T05:03:35;10.55;;;9.55;;
22234;SDS011;11286;45.596;5.284;2022-08-19T05:06:05;10.73;;;9.73;;
22234;SDS011;11286;45.596;5.284;2022-08-19T05:08:32;11.68;;;9.98;;
22234;SDS011;11286;45.596;5.284;2022-08-19T05:11:00;10.75;;;9.85;;
22234;SDS011;11286;45.596;5.284;2022-08-19T05:13:36;11.50;;;10.48;;
22234;SDS011;11286;45.596;5.284;2022-08-19T05:16:01;10.70;;;9.60;;
22234;SDS011;11286;45.596;5.284;2022-08-19T05:18:28;10.52;;;9.63;;
22234;SDS011;11286;45.596;5.284;2022-08-19T05:21:13;11.55;;;10.35;;
22234;SDS011;11286;45.596;5.284;2022-08-19T05:23:59;11.32;;;10.23;;
22234;SDS011;11286;45.596;5.284;2022-08-19T05:26:26;11.93;;;10.65;;
22234;SDS011;11286;45.596;5.284;2022-08-19T05:28:52;11.00;;;9.90;;
22234;SDS011;11286;45.596;5.284;2022-08-19T05:31:18;11.45;;;10.32;;
22234;SDS011;11286;45.596;5.284;2022-08-19T05:33:44;11.65;;;9.65;;
22234;SDS011;11286;45.596;5.284;2022-08-19T05:36:10;11.65;;;10.55;;
22234;SDS011;11286;45.596;5.284;2022-08-19T05:38:36;10.77;;;9.77;;
22234;SDS011;11286;45.596;5.284;2022-08-19T05:41:06;11.48;;;10.48;;
22234;SDS011;11286;45.596;5.284;2022-08-19T05:43:33;11.25;;;10.10;;
22234;SDS011;11286;45.596;5.284;2022-08-19T05:45:59;10.98;;;9.95;;
22234;SDS011;11286;45.596;5.284;2022-08-19T05:48:24;11.48;;;10.38;;
22234;SDS011;11286;45.596;5.284;2022-08-19T05:50:51;11.43;;;10.25;;
22234;SDS011;11286;45.596;5.284;2022-08-19T05:53:17;11.45;;;10.25;;
22234;SDS011;11286;45.596;5.284;2022-08-19T05:55:43;12.32;;;11.05;;
22234;SDS011;11286;45.596;5.284;2022-08-19T05:58:09;11.77;;;10.30;;
22234;SDS011;11286;45.596;5.284;2022-08-19T06:00:35;10.93;;;9.98;;
22234;SDS011;11286;45.596;5.284;2022-08-19T06:03:02;11.25;;;10.07;;
22234;SDS011;11286;45.596;5.284;2022-08-19T06:05:29;12.68;;;10.65;;
22234;SDS011;11286;45.596;5.284;2022-08-19T06:07:55;11.25;;;10.20;;
22234;SDS011;11286;45.596;5.284;2022-08-19T06:10:21;12.00;;;10.90;;
22234;SDS011;11286;45.596;5.284;2022-08-19T06:12:47;12.30;;;10.27;;
22234;SDS011;11286;45.596;5.284;2022-08-19T06:15:14;11.82;;;10.63;;
22234;SDS011;11286;45.596;5.284;2022-08-19T06:17:40;10.82;;;9.82;;
22234;SDS011;11286;45.596;5.284;2022-08-19T06:20:07;10.73;;;9.65;;
22234;SDS011;11286;45.596;5.284;2022-08-19T06:22:46;12.77;;;11.20;;
22234;SDS011;11286;45.596;5.284;2022-08-19T06:25:16;11.32;;;10.10;;
22234;SDS011;11286;45.596;5.284;2022-08-19T06:27:43;11.50;;;10.27;;
22234;SDS011;11286;45.596;5.284;2022-08-19T06:30:09;10.95;;;9.85;;
22234;SDS011;11286;45.596;5.284;2022-08-19T06:32:37;10.95;;;9.85;;
22234;SDS011;11286;45.596;5.284;2022-08-19T06:35:03;10.95;;;9.82;;
22234;SDS011;11286;45.596;5.284;2022-08-19T06:37:29;11.55;;;10.23;;
22234;SDS011;11286;45.596;5.284;2022-08-19T06:39:55;10.57;;;9.50;;
22234;SDS011;11286;45.596;5.284;2022-08-19T06:42:21;10.60;;;9.50;;
22234;SDS011;11286;45.596;5.284;2022-08-19T06:44:47;11.25;;;10.10;;
22234;SDS011;11286;45.596;5.284;2022-08-19T06:47:15;11.27;;;10.18;;
22234;SDS011;11286;45.596;5.284;2022-08-19T06:49:44;10.13;;;9.23;;
22234;SDS011;11286;45.596;5.284;2022-08-19T06:52:09;10.57;;;9.57;;
22234;SDS011;11286;45.596;5.284;2022-08-19T06:54:39;12.07;;;9.27;;
22234;SDS011;11286;45.596;5.284;2022-08-19T06:57:06;10.60;;;9.50;;
22234;SDS011;11286;45.596;5.284;2022-08-19T06:59:34;9.52;;;8.65;;
22234;SDS011;11286;45.596;5.284;2022-08-19T07:02:02;10.18;;;9.27;;
22234;SDS011;11286;45.596;5.284;2022-08-19T07:04:31;10.40;;;8.70;;
22234;SDS011;11286;45.596;5.284;2022-08-19T07:07:00;9.65;;;8.68;;
22234;SDS011;11286;45.596;5.284;2022-08-19T07:09:28;9.27;;;8.48;;
22234;SDS011;11286;45.596;5.284;2022-08-19T07:11:55;9.40;;;8.52;;
22234;SDS011;11286;45.596;5.284;2022-08-19T07:14:22;9.00;;;8.15;;
22234;SDS011;11286;45.596;5.284;2022-08-19T07:16:50;9.38;;;8.52;;
22234;SDS011;11286;45.596;5.284;2022-08-19T07:19:17;9.02;;;8.23;;
22234;SDS011;11286;45.596;5.284;2022-08-19T07:21:44;9.30;;;8.48;;
22234;SDS011;11286;45.596;5.284;2022-08-19T07:24:11;9.45;;;8.60;;
22234;SDS011;11286;45.596;5.284;2022-08-19T07:26:38;10.68;;;9.20;;
22234;SDS011;11286;45.596;5.284;2022-08-19T07:29:06;10.38;;;9.32;;
22234;SDS011;11286;45.596;5.284;2022-08-19T07:31:32;9.68;;;8.85;;
22234;SDS011;11286;45.596;5.284;2022-08-19T07:34:03;10.82;;;9.73;;
22234;SDS011;11286;45.596;5.284;2022-08-19T07:36:33;10.27;;;9.32;;
22234;SDS011;11286;45.596;5.284;2022-08-19T07:39:02;10.25;;;9.25;;
22234;SDS011;11286;45.596;5.284;2022-08-19T07:41:35;10.10;;;9.10;;
22234;SDS011;11286;45.596;5.284;2022-08-19T07:44:02;10.32;;;9.25;;
22234;SDS011;11286;45.596;5.284;2022-08-19T07:46:30;9.47;;;8.67;;
22234;SDS011;11286;45.596;5.284;2022-08-19T07:48:56;10.05;;;9.05;;
22234;SDS011;11286;45.596;5.284;2022-08-19T07:51:22;10.88;;;9.15;;
22234;SDS011;11286;45.596;5.284;2022-08-19T07:53:48;9.63;;;8.73;;
22234;SDS011;11286;45.596;5.284;2022-08-19T07:56:16;10.13;;;9.15;;
22234;SDS011;11286;45.596;5.284;2022-08-19T07:58:45;10.25;;;9.35;;
22234;SDS011;11286;45.596;5.284;2022-08-19T08:01:14;9.48;;;8.68;;
22234;SDS011;11286;45.596;5.284;2022-08-19T08:03:42;10.30;;;9.40;;
22234;SDS011;11286;45.596;5.284;2022-08-19T08:06:26;11.27;;;8.95;;
22234;SDS011;11286;45.596;5.284;2022-08-19T08:09:11;10.30;;;9.38;;
22234;SDS011;11286;45.596;5.284;2022-08-19T08:11:57;10.38;;;9.30;;
22234;SDS011;11286;45.596;5.284;2022-08-19T08:14:41;9.95;;;9.05;;
22234;SDS011;11286;45.596;5.284;2022-08-19T08:17:11;10.75;;;9.73;;
22234;SDS011;11286;45.596;5.284;2022-08-19T08:19:40;10.93;;;9.77;;
22234;SDS011;11286;45.596;5.284;2022-08-19T08:22:07;10.65;;;9.65;;
22234;SDS011;11286;45.596;5.284;2022-08-19T08:24:54;11.10;;;10.00;;
22234;SDS011;11286;45.596;5.284;2022-08-19T08:27:23;10.88;;;9.98;;
22234;SDS011;11286;45.596;5.284;2022-08-19T08:29:49;10.68;;;9.57;;
22234;SDS011;11286;45.596;5.284;2022-08-19T08:32:15;10.88;;;9.75;;
22234;SDS011;11286;45.596;5.284;2022-08-19T08:34:41;11.43;;;10.43;;
22234;SDS011;11286;45.596;5.284;2022-08-19T08:37:07;11.13;;;10.13;;
22234;SDS011;11286;45.596;5.284;2022-08-19T08:39:32;11.27;;;10.18;;
22234;SDS011;11286;45.596;5.284;2022-08-19T08:45:01;11.77;;;10.25;;
22234;SDS011;11286;45.596;5.284;2022-08-19T08:47:38;13.43;;;10.48;;
22234;SDS011;11286;45.596;5.284;2022-08-19T08:50:09;11.65;;;10.38;;
22234;SDS011;11286;45.596;5.284;2022-08-19T08:52:45;11.75;;;10.65;;
22234;SDS011;11286;45.596;5.284;2022-08-19T08:55:15;11.73;;;10.63;;
22234;SDS011;11286;45.596;5.284;2022-08-19T08:57:54;12.13;;;11.10;;
22234;SDS011;11286;45.596;5.284;2022-08-19T09:00:30;13.18;;;11.85;;
22234;SDS011;11286;45.596;5.284;2022-08-19T09:02:58;12.57;;;11.02;;
22234;SDS011;11286;45.596;5.284;2022-08-19T09:05:33;12.85;;;11.55;;
22234;SDS011;11286;45.596;5.284;2022-08-19T09:08:05;13.07;;;11.88;;
22234;SDS011;11286;45.596;5.284;2022-08-19T09:10:39;13.48;;;12.15;;
22234;SDS011;11286;45.596;5.284;2022-08-19T09:15:48;15.02;;;13.45;;
22234;SDS011;11286;45.596;5.284;2022-08-19T09:18:20;15.00;;;13.60;;
22234;SDS011;11286;45.596;5.284;2022-08-19T09:20:46;15.40;;;13.82;;
22234;SDS011;11286;45.596;5.284;2022-08-19T09:23:14;15.20;;;13.70;;
22234;SDS011;11286;45.596;5.284;2022-08-19T09:25:40;14.60;;;13.27;;
22234;SDS011;11286;45.596;5.284;2022-08-19T09:28:06;15.02;;;13.43;;
22234;SDS011;11286;45.596;5.284;2022-08-19T09:30:34;15.85;;;13.63;;
22234;SDS011;11286;45.596;5.284;2022-08-19T09:33:04;14.23;;;12.88;;
22234;SDS011;11286;45.596;5.284;2022-08-19T09:35:31;14.88;;;13.50;;
22234;SDS011;11286;45.596;5.284;2022-08-19T09:37:57;15.07;;;13.60;;
22234;SDS011;11286;45.596;5.284;2022-08-19T09:40:24;18.27;;;14.80;;
22234;SDS011;11286;45.596;5.284;2022-08-19T09:42:54;15.93;;;14.20;;
22234;SDS011;11286;45.596;5.284;2022-08-19T09:45:20;15.15;;;13.65;;
22234;SDS011;11286;45.596;5.284;2022-08-19T09:47:47;16.48;;;14.32;;
22234;SDS011;11286;45.596;5.284;2022-08-19T09:50:17;15.05;;;13.55;;
22234;SDS011;11286;45.596;5.284;2022-08-19T09:52:43;14.85;;;13.45;;
22234;SDS011;11286;45.596;5.284;2022-08-19T09:55:10;14.65;;;13.20;;
22234;SDS011;11286;45.596;5.284;2022-08-19T09:57:36;14.30;;;12.80;;
22234;SDS011;11286;45.596;5.284;2022-08-19T10:00:05;15.30;;;13.90;;
22234;SDS011;11286;45.596;5.284;2022-08-19T10:02:32;15.73;;;14.00;;
22234;SDS011;11286;45.596;5.284;2022-08-19T10:04:59;16.33;;;14.50;;
22234;SDS011;11286;45.596;5.284;2022-08-19T10:07:43;15.55;;;14.05;;
22234;SDS011;11286;45.596;5.284;2022-08-19T10:10:09;15.32;;;13.88;;
22234;SDS011;11286;45.596;5.284;2022-08-19T10:12:35;14.95;;;13.50;;
22234;SDS011;11286;45.596;5.284;2022-08-19T10:15:02;15.50;;;14.00;;
22234;SDS011;11286;45.596;5.284;2022-08-19T10:17:28;15.18;;;13.68;;
22234;SDS011;11286;45.596;5.284;2022-08-19T10:19:53;15.32;;;13.98;;
22234;SDS011;11286;45.596;5.284;2022-08-19T10:22:19;15.50;;;13.93;;
22234;SDS011;11286;45.596;5.284;2022-08-19T10:24:45;15.90;;;14.40;;
22234;SDS011;11286;45.596;5.284;2022-08-19T10:27:11;16.30;;;14.63;;
22234;SDS011;11286;45.596;5.284;2022-08-19T10:29:39;17.17;;;15.45;;
22234;SDS011;11286;45.596;5.284;2022-08-19T10:32:06;16.92;;;15.23;;
22234;SDS011;11286;45.596;5.284;2022-08-19T10:34:33;17.65;;;16.02;;
22234;SDS011;11286;45.596;5.284;2022-08-19T10:37:01;17.35;;;15.50;;
22234;SDS011;11286;45.596;5.284;2022-08-19T10:39:30;18.15;;;16.33;;
22234;SDS011;11286;45.596;5.284;2022-08-19T10:41:58;17.52;;;15.93;;
22234;SDS011;11286;45.596;5.284;2022-08-19T10:44:24;17.58;;;15.88;;
22234;SDS011;11286;45.596;5.284;2022-08-19T10:46:50;18.88;;;16.88;;
22234;SDS011;11286;45.596;5.284;2022-08-19T10:49:17;18.73;;;16.70;;
22234;SDS011;11286;45.596;5.284;2022-08-19T10:51:44;17.75;;;16.17;;
22234;SDS011;11286;45.596;5.284;2022-08-19T10:54:28;18.00;;;16.13;;
22234;SDS011;11286;45.596;5.284;2022-08-19T10:57:14;19.05;;;16.70;;
22234;SDS011;11286;45.596;5.284;2022-08-19T10:59:40;17.33;;;15.63;;
22234;SDS011;11286;45.596;5.284;2022-08-19T11:02:07;17.52;;;15.82;;
22234;SDS011;11286;45.596;5.284;2022-08-19T11:04:35;17.83;;;16.08;;
22234;SDS011;11286;45.596;5.284;2022-08-19T11:07:05;17.70;;;16.08;;
22234;SDS011;11286;45.596;5.284;2022-08-19T11:09:31;17.65;;;15.90;;
22234;SDS011;11286;45.596;5.284;2022-08-19T11:12:02;17.75;;;16.05;;
22234;SDS011;11286;45.596;5.284;2022-08-19T11:14:28;17.50;;;15.80;;
22234;SDS011;11286;45.596;5.284;2022-08-19T11:16:56;18.13;;;16.33;;
22234;SDS011;11286;45.596;5.284;2022-08-19T11:19:22;17.15;;;15.45;;
22234;SDS011;11286;45.596;5.284;2022-08-19T11:21:49;16.98;;;15.35;;
22234;SDS011;11286;45.596;5.284;2022-08-19T11:24:19;18.13;;;16.30;;
22234;SDS011;11286;45.596;5.284;2022-08-19T11:26:48;17.70;;;15.90;;
22234;SDS011;11286;45.596;5.284;2022-08-19T11:29:15;17.05;;;15.45;;
22234;SDS011;11286;45.596;5.284;2022-08-19T11:31:44;17.05;;;15.15;;
22234;SDS011;11286;45.596;5.284;2022-08-19T11:34:12;16.77;;;15.07;;
22234;SDS011;11286;45.596;5.284;2022-08-19T11:36:43;18.35;;;16.65;;
22234;SDS011;11286;45.596;5.284;2022-08-19T11:39:11;16.85;;;15.27;;
22234;SDS011;11286;45.596;5.284;2022-08-19T11:41:38;15.93;;;14.43;;
22234;SDS011;11286;45.596;5.284;2022-08-19T11:44:04;17.80;;;16.00;;
22234;SDS011;11286;45.596;5.284;2022-08-19T11:46:32;17.77;;;16.00;;
22234;SDS011;11286;45.596;5.284;2022-08-19T11:48:59;16.52;;;15.05;;
22234;SDS011;11286;45.596;5.284;2022-08-19T11:51:26;18.58;;;16.73;;
22234;SDS011;11286;45.596;5.284;2022-08-19T11:53:53;17.73;;;15.93;;
22234;SDS011;11286;45.596;5.284;2022-08-19T11:56:20;17.38;;;15.75;;
22234;SDS011;11286;45.596;5.284;2022-08-19T11:58:47;18.00;;;16.27;;
22234;SDS011;11286;45.596;5.284;2022-08-19T12:01:13;16.52;;;14.93;;
22234;SDS011;11286;45.596;5.284;2022-08-19T12:03:41;17.55;;;15.85;;
22234;SDS011;11286;45.596;5.284;2022-08-19T12:06:10;17.70;;;15.95;;
22234;SDS011;11286;45.596;5.284;2022-08-19T12:08:38;17.63;;;15.95;;
22234;SDS011;11286;45.596;5.284;2022-08-19T12:11:04;17.17;;;15.50;;
22234;SDS011;11286;45.596;5.284;2022-08-19T12:13:33;18.33;;;16.63;;
22234;SDS011;11286;45.596;5.284;2022-08-19T12:15:59;17.50;;;15.80;;
22234;SDS011;11286;45.596;5.284;2022-08-19T12:18:25;16.80;;;15.30;;
22234;SDS011;11286;45.596;5.284;2022-08-19T12:20:52;16.65;;;14.93;;
22234;SDS011;11286;45.596;5.284;2022-08-19T12:23:21;17.55;;;15.32;;
22234;SDS011;11286;45.596;5.284;2022-08-19T12:25:48;16.98;;;15.23;;
22234;SDS011;11286;45.596;5.284;2022-08-19T12:28:20;16.58;;;14.70;;
22234;SDS011;11286;45.596;5.284;2022-08-19T12:30:48;16.70;;;15.10;;
22234;SDS011;11286;45.596;5.284;2022-08-19T12:33:16;16.75;;;14.95;;
22234;SDS011;11286;45.596;5.284;2022-08-19T12:35:48;17.05;;;15.35;;
22234;SDS011;11286;45.596;5.284;2022-08-19T12:38:15;16.83;;;15.25;;
22234;SDS011;11286;45.596;5.284;2022-08-19T12:40:41;16.95;;;15.27;;
22234;SDS011;11286;45.596;5.284;2022-08-19T12:43:11;17.30;;;15.63;;
22234;SDS011;11286;45.596;5.284;2022-08-19T12:45:38;15.80;;;14.23;;
22234;SDS011;11286;45.596;5.284;2022-08-19T12:48:04;15.45;;;13.95;;
22234;SDS011;11286;45.596;5.284;2022-08-19T12:50:30;15.02;;;13.52;;
22234;SDS011;11286;45.596;5.284;2022-08-19T12:52:56;15.55;;;13.93;;
22234;SDS011;11286;45.596;5.284;2022-08-19T12:55:23;16.65;;;13.18;;
22234;SDS011;11286;45.596;5.284;2022-08-19T12:57:49;14.70;;;13.32;;
22234;SDS011;11286;45.596;5.284;2022-08-19T13:00:16;14.75;;;13.23;;
22234;SDS011;11286;45.596;5.284;2022-08-19T13:02:46;15.85;;;12.80;;
22234;SDS011;11286;45.596;5.284;2022-08-19T13:05:15;14.38;;;13.02;;
22234;SDS011;11286;45.596;5.284;2022-08-19T13:07:45;13.15;;;11.95;;
22234;SDS011;11286;45.596;5.284;2022-08-19T13:10:13;13.57;;;12.38;;
22234;SDS011;11286;45.596;5.284;2022-08-19T13:12:40;13.90;;;12.60;;
22234;SDS011;11286;45.596;5.284;2022-08-19T13:15:07;14.30;;;12.82;;
22234;SDS011;11286;45.596;5.284;2022-08-19T13:17:33;14.18;;;12.88;;
22234;SDS011;11286;45.596;5.284;2022-08-19T13:19:59;13.90;;;12.32;;
22234;SDS011;11286;45.596;5.284;2022-08-19T13:22:25;13.65;;;12.35;;
22234;SDS011;11286;45.596;5.284;2022-08-19T13:24:50;13.88;;;12.50;;
22234;SDS011;11286;45.596;5.284;2022-08-19T13:27:16;13.35;;;12.15;;
22234;SDS011;11286;45.596;5.284;2022-08-19T13:29:42;13.52;;;12.15;;
22234;SDS011;11286;45.596;5.284;2022-08-19T13:32:26;13.77;;;12.55;;
22234;SDS011;11286;45.596;5.284;2022-08-19T13:35:11;13.52;;;12.18;;
22234;SDS011;11286;45.596;5.284;2022-08-19T13:37:37;13.90;;;12.73;;
22234;SDS011;11286;45.596;5.284;2022-08-19T13:40:07;14.77;;;12.43;;
22234;SDS011;11286;45.596;5.284;2022-08-19T13:42:39;13.50;;;12.18;;
22234;SDS011;11286;45.596;5.284;2022-08-19T13:45:05;12.82;;;11.73;;
22234;SDS011;11286;45.596;5.284;2022-08-19T13:47:32;12.32;;;11.23;;
22234;SDS011;11286;45.596;5.284;2022-08-19T13:50:07;12.52;;;11.40;;
22234;SDS011;11286;45.596;5.284;2022-08-19T13:52:35;12.52;;;11.32;;
22234;SDS011;11286;45.596;5.284;2022-08-19T13:55:02;14.65;;;11.15;;
22234;SDS011;11286;45.596;5.284;2022-08-19T13:57:29;12.63;;;11.43;;
22234;SDS011;11286;45.596;5.284;2022-08-19T13:59:55;11.98;;;10.50;;
22234;SDS011;11286;45.596;5.284;2022-08-19T14:02:22;11.65;;;10.55;;
22234;SDS011;11286;45.596;5.284;2022-08-19T14:04:48;10.98;;;9.95;;
22234;SDS011;11286;45.596;5.284;2022-08-19T14:07:14;10.90;;;9.30;;
22234;SDS011;11286;45.596;5.284;2022-08-19T14:09:39;10.10;;;8.75;;
22234;SDS011;11286;45.596;5.284;2022-08-19T14:12:06;9.18;;;8.32;;
22234;SDS011;11286;45.596;5.284;2022-08-19T14:14:31;8.82;;;7.45;;
22234;SDS011;11286;45.596;5.284;2022-08-19T14:17:00;8.80;;;7.80;;
22234;SDS011;11286;45.596;5.284;2022-08-19T14:19:26;9.43;;;8.57;;
22234;SDS011;11286;45.596;5.284;2022-08-19T14:21:52;8.75;;;7.95;;
22234;SDS011;11286;45.596;5.284;2022-08-19T14:24:17;8.50;;;7.70;;
22234;SDS011;11286;45.596;5.284;2022-08-19T14:26:43;7.88;;;7.22;;
22234;SDS011;11286;45.596;5.284;2022-08-19T14:29:08;9.90;;;8.10;;
22234;SDS011;11286;45.596;5.284;2022-08-19T14:31:34;7.88;;;7.07;;
22234;SDS011;11286;45.596;5.284;2022-08-19T14:34:00;7.78;;;6.80;;
22234;SDS011;11286;45.596;5.284;2022-08-19T14:36:25;8.18;;;7.47;;
22234;SDS011;11286;45.596;5.284;2022-08-19T14:38:51;8.18;;;7.38;;
22234;SDS011;11286;45.596;5.284;2022-08-19T14:41:19;7.75;;;7.15;;
22234;SDS011;11286;45.596;5.284;2022-08-19T14:43:47;7.50;;;6.63;;
22234;SDS011;11286;45.596;5.284;2022-08-19T14:46:15;7.20;;;6.60;;